Time;durP1;ratioP1;P1;durP2;ratioP2;P2;SDS_P1;SDS_P2;PMS_P1;PMS_P2;Temp;Humidity;BMP_temperature;BMP_pressure;BME280_temperature;BME280_humidity;BME280_pressure;Samples;Min_cycle;Max_cycle;Signal;HPM_P1;HPM_P2
2021/12/15 00:01:42;;;;;;;23.83;11.90;;;;;;;7.80;92.31;102696.97;5028925;28;20044;-66
2021/12/15 00:04:08;;;;;;;20.70;10.93;;;;;;;7.80;93.12;102702.13;5023529;28;20169;-66
2021/12/15 00:06:35;;;;;;;25.80;11.88;;;;;;;7.87;92.68;102697.41;5030453;28;20037;-67
2021/12/15 00:09:06;;;;;;;26.38;10.90;;;;;;;7.96;91.89;102697.69;5028507;28;20529;-67
2021/12/15 00:11:36;;;;;;;25.40;12.18;;;;;;;7.83;92.29;102698.53;5025242;28;20030;-66
2021/12/15 00:14:05;;;;;;;24.30;11.25;;;;;;;7.80;92.72;102696.97;5026635;28;20033;-66
2021/12/15 00:16:31;;;;;;;22.40;11.45;;;;;;;7.83;92.73;102699.34;5019673;28;20040;-67
2021/12/15 00:18:57;;;;;;;21.92;11.45;;;;;;;7.81;92.55;102696.03;5024426;28;20076;-67
2021/12/15 00:21:23;;;;;;;20.98;11.02;;;;;;;7.90;92.26;102695.47;5026177;28;20853;-66
2021/12/15 00:23:49;;;;;;;19.23;10.82;;;;;;;7.89;92.28;102695.56;5025136;28;20183;-66
2021/12/15 00:26:16;;;;;;;20.75;10.90;;;;;;;7.82;92.44;102704.59;5022842;28;20042;-65
2021/12/15 00:28:43;;;;;;;23.63;10.93;;;;;;;7.83;92.49;102703.69;5022999;28;20086;-66
2021/12/15 00:31:09;;;;;;;23.52;9.48;;;;;;;7.81;92.51;102703.78;5024119;28;20049;-66
2021/12/15 00:33:38;;;;;;;21.20;11.30;;;;;;;7.78;92.60;102706.56;5023971;28;20034;-66
2021/12/15 00:36:05;;;;;;;22.33;10.27;;;;;;;7.87;92.51;102707.75;5006715;28;20032;-66
2021/12/15 00:38:31;;;;;;;24.92;10.75;;;;;;;7.88;92.50;102710.25;5028035;28;20033;-67
2021/12/15 00:40:57;;;;;;;19.70;10.27;;;;;;;7.83;92.60;102709.69;5026523;28;20484;-67
2021/12/15 00:43:23;;;;;;;20.38;10.57;;;;;;;7.84;92.41;102716.53;5022422;28;20116;-67
2021/12/15 00:45:50;;;;;;;21.80;10.50;;;;;;;7.82;92.53;102712.34;5023961;28;20030;-67
2021/12/15 00:48:17;;;;;;;22.10;10.93;;;;;;;7.75;92.96;102717.88;5024911;28;20029;-66
2021/12/15 00:50:45;;;;;;;22.83;10.02;;;;;;;7.80;92.81;102717.63;5026292;28;20064;-66
2021/12/15 00:53:13;;;;;;;26.77;11.77;;;;;;;7.75;93.19;102715.31;5026471;28;20713;-67
2021/12/15 00:55:39;;;;;;;23.33;10.77;;;;;;;7.89;92.46;102711.06;5026914;28;20026;-66
2021/12/15 00:58:06;;;;;;;21.40;11.65;;;;;;;7.82;92.81;102710.63;5024201;28;20088;-67
2021/12/15 01:00:38;;;;;;;19.25;10.55;;;;;;;7.91;92.29;102699.75;5025858;28;20033;-67
2021/12/15 01:03:06;;;;;;;24.65;11.68;;;;;;;7.97;92.47;102703.72;5025386;28;20041;-66
2021/12/15 01:05:35;;;;;;;21.30;10.73;;;;;;;7.83;92.69;102703.69;5026880;28;20036;-67
2021/12/15 01:08:04;;;;;;;22.15;10.93;;;;;;;7.83;93.07;102704.50;5025050;28;20033;-66
2021/12/15 01:10:44;;;;;;;21.52;10.32;;;;;;;7.84;93.16;102713.94;5025401;28;20479;-67
2021/12/15 01:21:34;;;;;;;28.25;11.27;;;;;;;7.80;93.61;102715.03;4979081;28;20034;-67
2021/12/15 01:24:00;;;;;;;24.80;12.23;;;;;;;7.93;93.70;102713.38;5007617;28;20041;-67
2021/12/15 01:26:26;;;;;;;22.70;11.45;;;;;;;8.04;93.23;102717.88;5006198;28;20033;-67
2021/12/15 01:28:52;;;;;;;19.83;11.52;;;;;;;7.98;93.06;102716.50;5028041;28;20034;-67
2021/12/15 01:31:19;;;;;;;23.60;12.63;;;;;;;7.93;94.33;102718.56;5024858;28;20079;-67
2021/12/15 01:33:45;;;;;;;29.02;13.15;;;;;;;7.90;94.87;102718.72;5027293;28;20206;-67
2021/12/15 01:36:11;;;;;;;25.80;13.52;;;;;;;7.90;95.67;102720.50;5024075;28;20045;-66
2021/12/15 01:38:39;;;;;;;24.17;13.23;;;;;;;7.92;96.08;102721.22;5025478;28;20025;-66
2021/12/15 01:41:08;;;;;;;24.23;13.00;;;;;;;7.87;96.23;102715.50;5024204;28;20038;-66
2021/12/15 01:49:16;;;;;;;26.67;13.45;;;;;;;7.65;97.84;102713.34;5028091;28;20044;-67
2021/12/15 01:51:42;;;;;;;29.85;14.38;;;;;;;7.66;98.03;102715.84;5022521;28;20036;-66
2021/12/15 01:54:08;;;;;;;27.85;14.80;;;;;;;7.62;98.37;102713.53;5025823;28;20083;-67
2021/12/15 01:56:34;;;;;;;31.35;14.65;;;;;;;7.59;98.62;102711.94;5031012;28;20033;-67
2021/12/15 01:59:00;;;;;;;30.27;13.65;;;;;;;7.58;98.52;102713.72;5027638;28;20021;-66
2021/12/15 02:01:26;;;;;;;28.77;13.60;;;;;;;7.54;98.95;102712.22;5022168;28;20120;-67
2021/12/15 02:03:53;;;;;;;28.60;13.10;;;;;;;7.62;98.94;102713.53;5022336;28;20060;-66
2021/12/15 02:06:19;;;;;;;28.95;13.02;;;;;;;7.63;98.78;102717.78;5019076;28;20053;-67
2021/12/15 02:08:45;;;;;;;28.17;13.70;;;;;;;7.62;98.86;102716.94;5005752;28;20022;-66
2021/12/15 02:11:11;;;;;;;27.48;13.73;;;;;;;7.56;99.15;102717.31;5026040;28;20025;-67
2021/12/15 02:13:38;;;;;;;27.10;13.38;;;;;;;7.71;99.02;102719.00;5014682;28;20022;-66
2021/12/15 02:16:06;;;;;;;27.23;13.75;;;;;;;7.65;98.87;102715.94;5026600;28;20044;-67
2021/12/15 02:18:36;;;;;;;30.40;14.40;;;;;;;7.60;98.79;102718.78;5023544;28;20042;-67
2021/12/15 02:21:09;;;;;;;28.73;13.73;;;;;;;7.76;98.60;102716.97;5025990;28;20515;-67
2021/12/15 02:23:42;;;;;;;33.13;14.85;;;;;;;7.73;98.46;102714.56;5028949;28;20087;-67
2021/12/15 02:26:15;;;;;;;30.55;15.25;;;;;;;7.72;98.34;102715.50;5027263;28;20468;-67
2021/12/15 02:28:54;;;;;;;31.83;14.48;;;;;;;7.64;99.03;102727.19;5035494;28;20038;-67
2021/12/15 02:39:16;;;;;;;28.38;14.10;;;;;;;7.69;99.03;102725.19;5029947;28;20025;-67
2021/12/15 02:41:44;;;;;;;32.05;14.80;;;;;;;7.57;99.42;102730.13;5027272;28;20127;-67
2021/12/15 02:44:15;;;;;;;31.13;15.07;;;;;;;7.66;99.65;102730.50;5025841;28;20057;-67
2021/12/15 02:46:43;;;;;;;29.27;15.38;;;;;;;7.68;99.36;102726.09;5028556;28;20056;-67
2021/12/15 02:49:13;;;;;;;30.05;13.95;;;;;;;7.72;99.48;102725.84;5022465;28;20424;-67
2021/12/15 02:51:41;;;;;;;30.08;15.13;;;;;;;7.64;99.78;102727.19;5026561;28;20383;-67
2021/12/15 02:54:07;;;;;;;31.63;14.48;;;;;;;7.59;100.00;102727.44;5025479;28;20462;-67
2021/12/15 02:56:35;;;;;;;29.50;14.43;;;;;;;7.56;100.00;102725.88;5025937;28;20030;-67
2021/12/15 02:59:04;;;;;;;31.02;13.93;;;;;;;7.56;100.00;102715.56;5027838;28;20664;-67
2021/12/15 03:02:52;;;;;;;28.52;15.25;;;;;;;7.59;100.00;102723.13;5029919;28;20587;-67
2021/12/15 03:04:29;;;;;;;31.13;14.95;;;;;;;7.58;100.00;102726.63;5014678;28;20042;-65
2021/12/15 03:07:09;;;;;;;30.45;15.00;;;;;;;7.67;99.75;102712.34;5027623;28;20033;-66
2021/12/15 03:15:29;;;;;;;32.50;15.90;;;;;;;7.75;98.94;102720.47;5023921;28;20052;-67
2021/12/15 03:17:59;;;;;;;31.45;14.70;;;;;;;7.59;99.25;102715.38;5026117;28;20038;-67
2021/12/15 03:20:28;;;;;;;32.17;15.77;;;;;;;7.58;99.66;102718.88;5027164;28;20032;-67
2021/12/15 03:22:56;;;;;;;34.63;16.17;;;;;;;7.61;100.00;102717.88;5025659;28;20065;-67
2021/12/15 03:25:21;;;;;;;35.00;15.95;;;;;;;7.59;99.65;102723.13;5026757;28;20038;-66
2021/12/15 03:36:10;;;;;;;29.23;14.80;;;;;;;7.63;99.71;102726.38;5028093;28;20535;-67
2021/12/15 03:38:37;;;;;;;33.38;15.75;;;;;;;7.70;99.67;102727.66;5008109;28;20041;-67
2021/12/15 03:41:08;;;;;;;38.83;15.70;;;;;;;7.63;99.69;102726.38;5025734;28;20075;-67
2021/12/15 03:43:35;;;;;;;32.25;15.98;;;;;;;7.57;99.96;102721.53;5028841;28;20068;-67
2021/12/15 03:46:06;;;;;;;36.88;15.65;;;;;;;7.63;99.51;102726.38;5026154;28;20076;-66
2021/12/15 03:48:35;;;;;;;33.70;14.65;;;;;;;7.58;100.00;102723.22;5021741;28;20029;-67
2021/12/15 03:51:02;;;;;;;33.15;15.82;;;;;;;7.64;99.90;102727.19;5021121;28;20034;-66
2021/12/15 03:53:28;;;;;;;33.67;15.85;;;;;;;7.59;100.00;102738.63;5029954;28;20029;-66
2021/12/15 03:55:55;;;;;;;32.05;15.10;;;;;;;7.54;100.00;102727.72;5027107;28;20120;-67
2021/12/15 03:58:23;;;;;;;31.58;15.55;;;;;;;7.68;100.00;102736.41;5027316;28;20622;-66
2021/12/15 04:00:55;;;;;;;31.00;14.98;;;;;;;7.65;100.00;102732.28;5027550;28;20036;-67
2021/12/15 04:03:31;;;;;;;35.80;14.65;;;;;;;7.53;100.00;102733.78;5027692;28;20112;-67
2021/12/15 04:06:00;;;;;;;34.33;16.05;;;;;;;7.52;100.00;102736.50;5020674;28;20041;-67
2021/12/15 04:08:28;;;;;;;38.20;15.82;;;;;;;7.67;100.00;102729.59;5024070;28;20029;-67
2021/12/15 04:10:55;;;;;;;46.30;19.17;;;;;;;7.52;100.00;102734.72;5025792;28;20368;-67
2021/12/15 04:13:21;;;;;;;52.65;21.23;;;;;;;7.51;100.00;102729.66;5022354;28;20084;-67
2021/12/15 04:15:53;;;;;;;142.77;50.72;;;;;;;7.63;100.00;102741.00;5027993;28;20039;-66
2021/12/15 04:18:20;;;;;;;102.28;39.65;;;;;;;7.59;100.00;102733.47;5041267;28;20864;-67
2021/12/15 04:20:46;;;;;;;57.55;25.33;;;;;;;7.51;100.00;102738.22;5026802;28;20029;-66
2021/12/15 04:23:19;;;;;;;47.97;18.98;;;;;;;7.51;100.00;102735.63;5026502;28;20049;-67
2021/12/15 04:25:45;;;;;;;;;;;;;;;7.49;100.00;102732.31;5027229;28;20064;-66
2021/12/15 04:28:15;;;;;;;50.80;20.58;;;;;;;7.53;100.00;102738.97;5034407;28;20339;-67
2021/12/15 04:30:45;;;;;;;38.85;18.55;;;;;;;7.44;100.00;102739.50;5027836;28;20037;-67
2021/12/15 04:33:19;;;;;;;53.78;24.27;;;;;;;7.45;100.00;102741.16;5025303;28;20491;-67
2021/12/15 04:35:45;;;;;;;45.97;21.95;;;;;;;7.51;100.00;102745.13;5024024;28;20555;-66
2021/12/15 04:38:13;;;;;;;55.60;25.38;;;;;;;7.49;100.00;102736.66;5026877;28;20025;-67
2021/12/15 04:40:41;;;;;;;37.97;18.05;;;;;;;7.46;100.00;102742.84;5028338;28;20025;-67
2021/12/15 04:43:07;;;;;;;39.78;21.20;;;;;;;7.49;100.00;102741.81;5027027;28;20056;-67
2021/12/15 04:45:33;;;;;;;35.78;18.70;;;;;;;7.38;100.00;102747.59;5008815;28;20108;-66
2021/12/15 04:47:59;;;;;;;31.65;16.80;;;;;;;7.36;100.00;102739.94;5029080;28;20098;-66
2021/12/15 04:50:27;;;;;;;31.23;16.10;;;;;;;7.47;100.00;102744.47;5025032;28;20479;-67
2021/12/15 04:52:54;;;;;;;35.03;15.00;;;;;;;7.48;100.00;102746.16;5025016;28;20503;-67
2021/12/15 04:55:21;;;;;;;29.88;15.73;;;;;;;7.43;100.00;102752.50;5027477;28;21373;-67
2021/12/15 04:57:48;;;;;;;32.70;16.05;;;;;;;7.54;100.00;102748.38;5025311;28;20036;-66
2021/12/15 05:00:20;;;;;;;27.67;14.50;;;;;;;7.48;100.00;102741.00;5023472;28;20058;-67
2021/12/15 05:02:47;;;;;;;32.50;15.57;;;;;;;7.51;100.00;102747.72;5032585;28;20064;-66
2021/12/15 05:05:13;;;;;;;34.33;16.85;;;;;;;7.52;100.00;102746.81;5023396;28;20083;-67
2021/12/15 05:07:39;;;;;;;33.70;16.92;;;;;;;7.56;100.00;102749.13;5026076;28;20095;-66
2021/12/15 05:10:08;;;;;;;28.38;15.65;;;;;;;7.51;100.00;102751.13;5029138;28;20076;-66
2021/12/15 05:12:36;;;;;;;35.70;17.23;;;;;;;7.50;100.00;102749.47;5024329;28;20025;-67
2021/12/15 05:15:04;;;;;;;31.63;16.90;;;;;;;7.51;100.00;102745.97;5024305;28;20022;-67
2021/12/15 05:17:30;;;;;;;27.63;15.65;;;;;;;7.57;100.00;102753.38;5017999;28;20089;-67
2021/12/15 05:20:00;;;;;;;28.73;15.57;;;;;;;7.49;100.00;102758.13;5024409;28;20045;-66
2021/12/15 05:22:26;;;;;;;32.40;17.00;;;;;;;7.49;100.00;102750.38;5011098;28;20030;-67
2021/12/15 05:24:52;;;;;;;29.92;16.55;;;;;;;7.49;100.00;102762.47;5025312;28;20041;-67
2021/12/15 05:27:18;;;;;;;33.13;18.17;;;;;;;7.48;100.00;102763.38;5027090;28;20385;-66
2021/12/15 05:29:46;;;;;;;28.98;16.02;;;;;;;7.44;100.00;102765.31;5025761;28;20041;-67
2021/12/15 05:32:16;;;;;;;28.90;15.05;;;;;;;7.41;100.00;102770.66;5027151;28;20037;-67
2021/12/15 05:34:42;;;;;;;29.67;16.10;;;;;;;7.48;100.00;102759.06;5026266;28;20029;-66
2021/12/15 05:37:07;;;;;;;28.45;15.43;;;;;;;7.45;100.00;102763.56;5021309;28;20044;-66
2021/12/15 05:39:34;;;;;;;28.40;14.00;;;;;;;7.42;100.00;102759.41;5026044;28;20108;-67
2021/12/15 05:42:00;;;;;;;25.23;14.38;;;;;;;7.49;100.00;102765.88;5024490;28;20037;-67
2021/12/15 05:44:26;;;;;;;27.80;14.27;;;;;;;7.46;100.00;102765.22;5025432;28;20856;-66
2021/12/15 05:46:56;;;;;;;32.13;17.77;;;;;;;7.64;100.00;102769.31;5026272;28;20037;-66
2021/12/15 05:49:21;;;;;;;41.08;20.90;;;;;;;7.54;100.00;102766.44;5032009;28;20032;-66
2021/12/15 05:51:47;;;;;;;34.60;17.48;;;;;;;7.46;100.00;102772.97;5023395;28;20773;-67
2021/12/15 05:54:13;;;;;;;40.33;21.08;;;;;;;7.39;100.00;102773.31;5028238;28;20060;-67
2021/12/15 05:56:40;;;;;;;35.83;18.48;;;;;;;7.43;100.00;102775.72;5029698;28;20033;-67
2021/12/15 05:59:06;;;;;;;38.25;19.48;;;;;;;7.53;100.00;102776.84;5030585;28;20061;-67
2021/12/15 06:01:33;;;;;;;36.72;19.20;;;;;;;7.48;100.00;102778.88;5014540;28;20076;-66
2021/12/15 06:04:00;;;;;;;39.47;19.55;;;;;;;7.48;100.00;102773.69;5035712;28;20045;-66
2021/12/15 06:06:28;;;;;;;35.78;19.27;;;;;;;7.41;100.00;102770.66;5028133;28;20061;-66
2021/12/15 06:08:54;;;;;;;49.40;25.25;;;;;;;7.51;100.00;102769.19;5030951;28;20068;-66
2021/12/15 06:11:20;;;;;;;39.00;20.58;;;;;;;7.46;100.00;102773.81;5022279;28;21149;-66
2021/12/15 06:13:48;;;;;;;37.30;18.95;;;;;;;7.57;100.00;102774.03;5028468;28;20080;-66
2021/12/15 06:16:18;;;;;;;38.50;20.73;;;;;;;7.52;100.00;102773.47;5028695;28;20700;-66
2021/12/15 06:18:45;;;;;;;41.47;20.48;;;;;;;7.44;100.00;102770.50;5029919;28;20044;-66
2021/12/15 06:21:11;;;;;;;39.88;19.80;;;;;;;7.44;100.00;102775.66;5061076;23;20094;-66
2021/12/15 06:23:37;;;;;;;38.90;20.08;;;;;;;7.54;100.00;102773.38;5059922;28;20047;-66
2021/12/15 06:26:05;;;;;;;40.90;20.45;;;;;;;7.56;100.00;102774.13;5060014;28;20037;-66
2021/12/15 06:28:34;;;;;;;32.58;17.38;;;;;;;7.52;100.00;102773.47;5065212;28;20112;-66
2021/12/15 06:31:01;;;;;;;53.35;25.40;;;;;;;7.57;100.00;102784.34;5053884;28;20021;-67
2021/12/15 06:33:28;;;;;;;43.90;21.08;;;;;;;7.49;100.00;102777.97;5050134;28;20037;-69
2021/12/15 06:35:58;;;;;;;45.05;21.63;;;;;;;7.59;100.00;102782.53;5051535;28;20053;-69
2021/12/15 06:38:28;;;;;;;40.60;19.90;;;;;;;7.51;100.00;102781.28;5044388;28;20056;-69
2021/12/15 06:40:54;;;;;;;51.03;24.85;;;;;;;7.43;100.00;102786.88;5051395;28;20033;-68
2021/12/15 06:43:21;;;;;;;38.65;19.02;;;;;;;7.56;100.00;102787.03;5057282;28;20116;-69
2021/12/15 06:59:19;;;;;;;46.28;22.17;;;;;;;7.57;100.00;102788.66;5048111;28;20039;-68
2021/12/15 07:01:46;;;;;;;42.67;21.52;;;;;;;7.52;100.00;102795.88;5039563;28;20030;-68
2021/12/15 07:04:12;;;;;;;66.03;29.00;;;;;;;7.60;100.00;102793.66;5047373;28;20104;-68
2021/12/15 07:06:38;;;;;;;66.40;30.58;;;;;;;7.57;100.00;102799.84;5043806;28;20087;-69
2021/12/15 07:09:04;;;;;;;43.97;20.33;;;;;;;7.60;100.00;102799.66;5050926;28;20036;-68
2021/12/15 07:11:30;;;;;;;48.78;23.85;;;;;;;7.51;100.00;102805.34;5042340;28;20491;-69
2021/12/15 07:13:56;;;;;;;43.25;20.98;;;;;;;7.54;100.00;102810.34;5051734;28;20546;-68
2021/12/15 07:16:21;;;;;;;39.65;20.48;;;;;;;7.53;100.00;102808.66;5049311;28;20666;-69
2021/12/15 07:19:03;;;;;;;37.35;19.50;;;;;;;7.59;100.00;102813.50;5050536;28;20035;-69
2021/12/15 07:21:34;;;;;;;39.72;17.92;;;;;;;7.57;100.00;102817.91;5045823;28;20029;-69
2021/12/15 07:24:01;;;;;;;30.90;17.20;;;;;;;7.59;100.00;102822.97;5034061;28;20059;-68
2021/12/15 07:26:26;;;;;;;33.03;17.75;;;;;;;7.67;100.00;102813.06;5045683;28;20074;-68
2021/12/15 07:28:52;;;;;;;29.55;16.02;;;;;;;7.53;100.00;102818.16;5048685;28;20029;-67
2021/12/15 07:31:19;;;;;;;29.88;16.08;;;;;;;7.72;100.00;102818.81;5041770;28;20051;-68
2021/12/15 07:33:45;;;;;;;28.95;15.90;;;;;;;7.64;100.00;102820.16;5044866;28;20067;-68
2021/12/15 07:36:11;;;;;;;33.97;16.30;;;;;;;7.71;100.00;102816.31;5042736;28;20029;-68
2021/12/15 07:38:41;;;;;;;28.73;15.10;;;;;;;7.61;100.00;102823.75;5050478;28;20076;-68
2021/12/15 07:41:48;;;;;;;28.50;15.32;;;;;;;7.63;100.00;102824.50;5045691;28;20106;-68
2021/12/15 07:44:05;;;;;;;26.13;14.25;;;;;;;7.59;100.00;102830.72;5043688;28;20064;-69
2021/12/15 07:46:31;;;;;;;42.72;15.68;;;;;;;7.69;100.00;102831.06;5047998;28;20155;-68
2021/12/15 07:48:57;;;;;;;31.13;16.38;;;;;;;7.65;100.00;102837.28;5050043;28;20029;-68
2021/12/15 07:51:23;;;;;;;51.55;25.67;;;;;;;7.60;100.00;102846.13;5044808;28;20029;-68
2021/12/15 07:53:49;;;;;;;38.95;19.35;;;;;;;7.51;100.00;102838.91;5045899;28;20146;-68
2021/12/15 07:56:15;;;;;;;34.80;15.35;;;;;;;7.69;100.00;102843.97;5048267;28;20116;-69
2021/12/15 07:58:42;;;;;;;30.58;16.05;;;;;;;7.58;100.00;102849.72;5050400;28;20036;-68
2021/12/15 08:01:08;;;;;;;28.73;16.83;;;;;;;7.55;100.00;102847.31;5049447;28;20043;-68
2021/12/15 08:03:38;;;;;;;30.80;16.23;;;;;;;7.61;100.00;102844.41;5048534;28;20028;-68
2021/12/15 08:06:04;;;;;;;26.45;15.38;;;;;;;7.59;100.00;102847.06;5047391;28;20108;-69
2021/12/15 08:08:31;;;;;;;29.85;16.00;;;;;;;7.63;100.00;102845.16;5043786;28;20025;-69
2021/12/15 08:10:57;;;;;;;31.30;16.42;;;;;;;7.62;100.00;102846.06;5049312;28;20116;-69
2021/12/15 08:13:30;;;;;;;28.45;15.18;;;;;;;7.62;100.00;102848.63;5038807;28;20067;-68
2021/12/15 08:15:57;;;;;;;27.98;15.93;;;;;;;7.58;100.00;102850.56;5050372;28;20032;-68
2021/12/15 08:18:22;;;;;;;30.35;15.65;;;;;;;7.71;100.00;102842.94;5050508;28;20075;-68
2021/12/15 08:20:50;;;;;;;28.60;15.80;;;;;;;7.66;100.00;102844.94;5032343;28;20505;-69
2021/12/15 08:23:17;;;;;;;30.08;16.92;;;;;;;7.62;100.00;102846.06;5048804;28;20218;-68
2021/12/15 08:25:42;;;;;;;33.92;16.65;;;;;;;7.74;100.00;102841.94;5041840;28;20090;-68
2021/12/15 08:28:10;;;;;;;28.25;14.98;;;;;;;7.66;100.00;102850.13;5040331;28;20422;-68
2021/12/15 08:30:38;;;;;;;29.98;16.17;;;;;;;7.70;100.00;102850.78;5029053;28;20029;-68
2021/12/15 08:33:12;;;;;;;28.63;16.50;;;;;;;7.71;100.00;102852.47;5049125;28;20445;-68
2021/12/15 08:35:44;;;;;;;30.75;17.17;;;;;;;7.72;100.00;102862.69;5048716;28;20171;-68
2021/12/15 08:38:11;;;;;;;28.67;16.05;;;;;;;7.67;100.00;102859.53;5031798;28;20116;-68
2021/12/15 08:40:38;;;;;;;27.92;15.82;;;;;;;7.65;100.00;102868.28;5042313;28;20021;-69
2021/12/15 08:43:07;;;;;;;28.77;17.08;;;;;;;7.71;100.00;102863.59;5048304;28;20033;-68
2021/12/15 08:45:34;;;;;;;29.75;16.85;;;;;;;7.74;100.00;102870.34;5027925;28;20502;-68
2021/12/15 08:48:00;;;;;;;30.20;16.13;;;;;;;7.81;100.00;102869.06;5049106;28;20036;-68
2021/12/15 08:50:29;;;;;;;29.80;16.50;;;;;;;7.69;100.00;102869.78;5049153;28;20033;-68
2021/12/15 08:52:56;;;;;;;29.73;16.58;;;;;;;7.71;100.00;102866.19;5045523;28;20036;-68
2021/12/15 08:55:23;;;;;;;29.65;17.92;;;;;;;7.69;100.00;102862.88;5045780;28;20063;-68
2021/12/15 08:57:52;;;;;;;30.20;17.13;;;;;;;7.75;100.00;102867.69;5049734;28;20082;-69
2021/12/15 09:00:20;;;;;;;30.15;17.15;;;;;;;7.74;100.00;102872.91;5031413;28;20047;-68
2021/12/15 09:02:46;;;;;;;30.75;17.67;;;;;;;7.80;100.00;102873.41;5047397;28;20457;-68
2021/12/15 09:05:20;;;;;;;30.60;17.98;;;;;;;7.80;100.00;102875.19;5047470;28;20028;-68
2021/12/15 09:07:47;;;;;;;29.80;16.30;;;;;;;7.86;100.00;102876.59;5041740;28;20041;-68
2021/12/15 09:10:13;;;;;;;28.90;16.67;;;;;;;7.90;100.00;102873.72;5047323;28;20029;-68
2021/12/15 09:12:39;;;;;;;28.63;17.00;;;;;;;7.84;100.00;102876.66;5042887;28;20102;-68
2021/12/15 09:15:07;;;;;;;26.13;16.00;;;;;;;7.96;100.00;102875.94;5042980;28;20030;-68
2021/12/15 09:17:32;;;;;;;28.27;16.00;;;;;;;7.90;100.00;102881.47;5044260;28;20033;-68
2021/12/15 09:19:58;;;;;;;31.00;18.10;;;;;;;7.85;100.00;102872.31;5048983;28;20048;-68
2021/12/15 09:22:24;;;;;;;30.30;16.65;;;;;;;7.80;100.00;102881.16;5044226;28;20028;-69
2021/12/15 09:24:49;;;;;;;30.50;18.15;;;;;;;7.88;100.00;102880.72;5048777;28;20386;-69
2021/12/15 09:27:15;;;;;;;36.45;17.85;;;;;;;7.95;100.00;102878.63;5045972;28;20464;-68
2021/12/15 09:29:41;;;;;;;29.08;16.77;;;;;;;7.83;100.00;102877.56;5046435;28;20033;-68
2021/12/15 09:32:07;;;;;;;35.00;17.80;;;;;;;7.91;100.00;102872.81;5040345;28;20074;-68
2021/12/15 09:34:32;;;;;;;32.30;18.13;;;;;;;7.95;100.00;102876.06;5051731;28;20571;-68
2021/12/15 09:36:58;;;;;;;35.15;18.40;;;;;;;7.94;100.00;102882.13;5029006;28;20559;-69
2021/12/15 09:39:24;;;;;;;33.30;17.58;;;;;;;7.93;100.00;102885.63;5046785;28;20024;-69
2021/12/15 09:41:52;;;;;;;30.13;16.42;;;;;;;8.09;100.00;102883.81;5043406;28;20033;-68
2021/12/15 09:44:22;;;;;;;33.13;17.95;;;;;;;8.01;100.00;102887.78;5029311;28;20445;-68
2021/12/15 10:03:02;;;;;;;35.63;17.08;;;;;;;8.13;100.00;102903.41;5040171;28;20041;-68
2021/12/15 10:10:50;;;;;;;33.17;17.67;;;;;;;8.20;99.73;102901.31;5049265;28;20060;-68
2021/12/15 10:19:18;;;;;;;35.50;16.95;;;;;;;8.21;99.66;102899.53;5045101;28;20041;-68
2021/12/15 10:22:18;;;;;;;31.27;17.00;;;;;;;8.11;99.68;102887.16;5042100;28;20080;-68
2021/12/15 10:24:57;;;;;;;30.63;17.33;;;;;;;8.23;99.61;102898.56;5047295;28;20559;-68
2021/12/15 10:27:44;;;;;;;31.52;17.23;;;;;;;8.21;99.17;102896.97;5045968;28;20029;-69
2021/12/15 10:30:24;;;;;;;33.65;16.38;;;;;;;8.27;99.05;102892.28;5045051;28;20025;-68
2021/12/15 10:33:20;;;;;;;27.42;15.90;;;;;;;8.30;98.85;102888.66;5046477;28;20090;-68
2021/12/15 10:35:59;;;;;;;31.63;16.95;;;;;;;8.30;98.78;102893.84;5047480;28;20037;-68
2021/12/15 10:38:49;;;;;;;31.80;16.65;;;;;;;8.39;98.38;102890.72;5043724;28;20120;-68
2021/12/15 10:41:28;;;;;;;28.77;16.50;;;;;;;8.43;98.05;102893.97;5049334;28;20111;-68
2021/12/15 10:44:24;;;;;;;28.20;16.55;;;;;;;8.49;97.78;102898.78;5049720;28;20036;-68
2021/12/15 10:46:57;;;;;;;26.25;15.13;;;;;;;8.41;97.83;102898.38;5047893;28;20036;-68
2021/12/15 10:49:29;;;;;;;33.15;15.80;;;;;;;8.34;98.16;102901.34;5044675;28;20029;-69
2021/12/15 10:52:05;;;;;;;28.95;15.73;;;;;;;8.25;98.71;102899.28;5048266;28;20262;-68
2021/12/15 10:54:44;;;;;;;30.52;16.35;;;;;;;8.25;99.12;102893.25;5043727;28;20024;-69
2021/12/15 10:57:16;;;;;;;28.40;15.93;;;;;;;8.40;99.22;102894.97;5046859;28;20047;-69
2021/12/15 10:59:45;;;;;;;26.88;15.68;;;;;;;8.29;98.78;102894.78;5044344;28;20107;-68
2021/12/15 11:02:23;;;;;;;29.98;16.55;;;;;;;8.31;98.94;102898.09;5042814;28;20067;-68
2021/12/15 11:04:54;;;;;;;29.67;16.98;;;;;;;8.34;98.85;102896.16;5045607;28;20372;-68
2021/12/15 11:07:26;;;;;;;30.77;16.23;;;;;;;8.36;98.22;102896.06;5027250;28;20033;-68
2021/12/15 11:10:12;;;;;;;29.75;16.65;;;;;;;8.50;97.63;102887.53;5045300;28;20033;-67
2021/12/15 11:12:40;;;;;;;30.02;16.50;;;;;;;8.37;98.03;102890.81;5040848;28;20367;-69
2021/12/15 11:15:14;;;;;;;28.77;16.58;;;;;;;8.46;98.34;102893.81;5030632;28;20043;-69
2021/12/15 11:17:47;;;;;;;30.42;17.15;;;;;;;8.48;98.14;102899.72;5048884;28;20056;-68
2021/12/15 11:20:35;;;;;;;42.90;21.77;;;;;;;8.32;98.73;102887.66;5046663;28;20090;-67
2021/12/15 11:23:05;;;;;;;38.05;19.40;;;;;;;8.39;98.66;102891.53;5049072;28;20056;-68
2021/12/15 11:25:37;;;;;;;31.00;17.75;;;;;;;8.55;98.19;102895.81;5048541;28;20514;-69
2021/12/15 11:28:12;;;;;;;34.10;17.70;;;;;;;8.37;98.53;102895.97;5046453;28;20078;-69
2021/12/15 11:30:42;;;;;;;35.47;18.23;;;;;;;8.54;98.46;102883.84;5047782;28;20127;-69
2021/12/15 11:33:20;;;;;;;33.85;17.52;;;;;;;8.48;97.85;102895.38;5048947;28;20029;-69
2021/12/15 11:35:55;;;;;;;36.40;18.65;;;;;;;8.55;98.32;102883.75;5046879;28;20033;-69
2021/12/15 11:38:26;;;;;;;34.25;17.58;;;;;;;8.50;98.28;102883.19;5046281;28;20507;-68
2021/12/15 11:41:04;;;;;;;33.40;17.25;;;;;;;8.57;98.21;102888.84;5047308;28;20033;-68
2021/12/15 11:43:32;;;;;;;35.17;18.50;;;;;;;8.56;98.29;102882.00;5049641;28;20037;-69
2021/12/15 11:46:00;;;;;;;32.13;16.83;;;;;;;8.62;98.04;102883.38;5040567;28;20029;-69
2021/12/15 11:48:33;;;;;;;36.60;17.17;;;;;;;8.51;98.26;102884.84;5048230;28;20035;-68
2021/12/15 11:51:04;;;;;;;33.83;17.25;;;;;;;8.55;98.14;102883.75;5049125;28;20055;-69
2021/12/15 11:53:34;;;;;;;36.88;18.35;;;;;;;8.53;98.53;102877.00;5044090;28;20029;-69
2021/12/15 11:56:14;;;;;;;35.08;16.88;;;;;;;8.56;98.54;102887.16;5045545;28;20507;-69
2021/12/15 11:58:40;;;;;;;31.88;17.00;;;;;;;8.55;98.96;102882.91;5048854;28;20436;-68
2021/12/15 12:01:08;;;;;;;37.88;17.58;;;;;;;8.53;98.87;102885.59;5047224;28;20037;-68
2021/12/15 12:03:36;;;;;;;35.97;16.83;;;;;;;8.60;98.49;102878.28;5048921;28;20534;-68
2021/12/15 12:06:02;;;;;;;34.60;17.17;;;;;;;8.54;98.82;102879.50;5043054;28;20033;-69
2021/12/15 12:08:29;;;;;;;35.00;16.77;;;;;;;8.64;99.14;102871.19;5044720;28;20029;-68
2021/12/15 12:10:57;;;;;;;36.38;17.67;;;;;;;8.62;99.11;102876.44;5047125;28;20487;-69
2021/12/15 12:13:28;;;;;;;42.13;18.92;;;;;;;8.64;98.76;102886.69;5046095;28;20134;-69
2021/12/15 12:16:07;;;;;;;34.38;17.65;;;;;;;8.62;98.77;102888.53;5047201;28;20079;-68
2021/12/15 12:18:34;;;;;;;37.90;18.17;;;;;;;8.67;98.63;102882.16;5047643;28;20111;-69
2021/12/15 12:21:05;;;;;;;37.53;18.17;;;;;;;8.82;97.96;102875.25;5049742;28;20032;-68
2021/12/15 12:23:33;;;;;;;45.20;20.63;;;;;;;8.81;98.11;102875.31;5047320;28;20041;-68
2021/12/15 12:26:03;;;;;;;40.95;19.13;;;;;;;8.81;97.69;102875.31;5048406;28;20037;-69
2021/12/15 12:28:40;;;;;;;40.45;17.83;;;;;;;8.76;97.94;102881.63;5047007;28;20029;-69
2021/12/15 12:31:11;;;;;;;37.97;18.20;;;;;;;8.76;97.93;102873.84;5046418;28;20095;-68
2021/12/15 12:33:37;;;;;;;37.97;17.63;;;;;;;8.72;97.84;102872.38;5030137;28;20033;-69
2021/12/15 12:36:08;;;;;;;41.17;19.25;;;;;;;8.75;98.63;102868.78;5045549;28;20667;-68
2021/12/15 12:38:36;;;;;;;40.83;19.13;;;;;;;8.72;98.28;102866.34;5049078;28;20029;-69
2021/12/15 12:41:13;;;;;;;39.30;19.95;;;;;;;8.80;97.99;102868.47;5045667;28;20040;-68